sensor_id;sensor_type;location;lat;lon;timestamp;P1;durP1;ratioP1;P2;durP2;ratioP2
3677;SDS011;1855;50.934;6.958;2022-08-19T10:45:10;14.30;;;13.00;;
3677;SDS011;1855;50.934;6.958;2022-08-19T10:47:37;9.13;;;8.43;;
3677;SDS011;1855;50.934;6.958;2022-08-19T10:50:04;13.00;;;12.10;;
3677;SDS011;1855;50.934;6.958;2022-08-19T10:52:49;13.98;;;12.88;;
3677;SDS011;1855;50.934;6.958;2022-08-19T10:55:17;13.15;;;12.15;;
3677;SDS011;1855;50.934;6.958;2022-08-19T10:58:03;14.40;;;13.30;;
3677;SDS011;1855;50.934;6.958;2022-08-19T11:00:36;14.82;;;13.73;;
3677;SDS011;1855;50.934;6.958;2022-08-19T11:03:03;17.13;;;15.93;;
3677;SDS011;1855;50.934;6.958;2022-08-19T11:05:30;15.80;;;14.65;;
3677;SDS011;1855;50.934;6.958;2022-08-19T11:07:57;15.03;;;13.83;;
3677;SDS011;1855;50.934;6.958;2022-08-19T11:10:23;15.00;;;13.90;;
3677;SDS011;1855;50.934;6.958;2022-08-19T11:12:50;16.65;;;15.45;;
3677;SDS011;1855;50.934;6.958;2022-08-19T11:15:19;14.97;;;13.97;;
3677;SDS011;1855;50.934;6.958;2022-08-19T11:17:48;16.83;;;15.63;;
3677;SDS011;1855;50.934;6.958;2022-08-19T11:20:18;14.57;;;13.38;;
3677;SDS011;1855;50.934;6.958;2022-08-19T11:22:45;14.15;;;13.15;;
3677;SDS011;1855;50.934;6.958;2022-08-19T11:25:13;12.15;;;11.25;;
3677;SDS011;1855;50.934;6.958;2022-08-19T11:27:40;11.85;;;10.95;;
3677;SDS011;1855;50.934;6.958;2022-08-19T11:30:08;10.05;;;9.35;;
3677;SDS011;1855;50.934;6.958;2022-08-19T11:32:36;10.90;;;10.20;;
3677;SDS011;1855;50.934;6.958;2022-08-19T11:35:05;10.17;;;9.47;;
3677;SDS011;1855;50.934;6.958;2022-08-19T11:37:32;13.00;;;12.00;;
3677;SDS011;1855;50.934;6.958;2022-08-19T11:40:02;12.50;;;11.70;;
3677;SDS011;1855;50.934;6.958;2022-08-19T11:42:29;12.03;;;11.20;;
3677;SDS011;1855;50.934;6.958;2022-08-19T11:45:14;9.93;;;9.23;;
3677;SDS011;1855;50.934;6.958;2022-08-19T11:47:41;10.80;;;10.10;;
3677;SDS011;1855;50.934;6.958;2022-08-19T11:50:10;10.75;;;9.95;;
3677;SDS011;1855;50.934;6.958;2022-08-19T11:52:37;9.00;;;8.30;;
3677;SDS011;1855;50.934;6.958;2022-08-19T11:55:04;8.52;;;7.93;;
3677;SDS011;1855;50.934;6.958;2022-08-19T11:57:32;9.20;;;8.50;;
3677;SDS011;1855;50.934;6.958;2022-08-19T11:59:58;9.50;;;8.60;;
3677;SDS011;1855;50.934;6.958;2022-08-19T12:02:26;10.97;;;10.10;;
3677;SDS011;1855;50.934;6.958;2022-08-19T12:04:53;9.40;;;8.70;;
3677;SDS011;1855;50.934;6.958;2022-08-19T12:07:21;8.85;;;8.25;;
3677;SDS011;1855;50.934;6.958;2022-08-19T12:09:49;9.40;;;8.70;;
3677;SDS011;1855;50.934;6.958;2022-08-19T12:12:16;8.80;;;8.10;;
3677;SDS011;1855;50.934;6.958;2022-08-19T12:14:43;9.30;;;8.57;;
3677;SDS011;1855;50.934;6.958;2022-08-19T12:17:11;9.02;;;8.32;;
3677;SDS011;1855;50.934;6.958;2022-08-19T12:19:38;9.35;;;8.60;;
3677;SDS011;1855;50.934;6.958;2022-08-19T12:22:05;8.45;;;7.68;;
3677;SDS011;1855;50.934;6.958;2022-08-19T12:24:33;8.50;;;7.80;;
3677;SDS011;1855;50.934;6.958;2022-08-19T12:27:00;8.30;;;7.60;;
3677;SDS011;1855;50.934;6.958;2022-08-19T12:29:28;8.17;;;7.30;;
3677;SDS011;1855;50.934;6.958;2022-08-19T12:31:55;8.63;;;7.90;;
3677;SDS011;1855;50.934;6.958;2022-08-19T12:34:26;8.50;;;7.90;;
3677;SDS011;1855;50.934;6.958;2022-08-19T12:36:54;8.27;;;7.60;;
3677;SDS011;1855;50.934;6.958;2022-08-19T12:39:21;7.87;;;7.27;;
3677;SDS011;1855;50.934;6.958;2022-08-19T12:41:50;7.72;;;7.18;;
3677;SDS011;1855;50.934;6.958;2022-08-19T12:44:17;7.00;;;6.50;;
3677;SDS011;1855;50.934;6.958;2022-08-19T12:46:44;8.80;;;7.30;;
3677;SDS011;1855;50.934;6.958;2022-08-19T12:49:12;8.20;;;7.60;;
3677;SDS011;1855;50.934;6.958;2022-08-19T12:51:39;7.77;;;7.17;;
3677;SDS011;1855;50.934;6.958;2022-08-19T12:54:07;7.70;;;7.10;;
3677;SDS011;1855;50.934;6.958;2022-08-19T12:56:34;8.10;;;7.30;;
3677;SDS011;1855;50.934;6.958;2022-08-19T12:59:04;7.40;;;6.90;;
3677;SDS011;1855;50.934;6.958;2022-08-19T13:01:32;8.00;;;7.30;;
3677;SDS011;1855;50.934;6.958;2022-08-19T13:03:59;7.90;;;7.30;;
3677;SDS011;1855;50.934;6.958;2022-08-19T13:06:26;7.43;;;6.78;;
3677;SDS011;1855;50.934;6.958;2022-08-19T13:08:53;8.75;;;8.05;;
3677;SDS011;1855;50.934;6.958;2022-08-19T13:11:20;8.07;;;7.47;;
3677;SDS011;1855;50.934;6.958;2022-08-19T13:13:49;7.50;;;6.70;;
3677;SDS011;1855;50.934;6.958;2022-08-19T13:16:19;7.50;;;7.00;;
3677;SDS011;1855;50.934;6.958;2022-08-19T13:18:47;7.35;;;6.75;;
3677;SDS011;1855;50.934;6.958;2022-08-19T13:21:17;6.90;;;6.30;;
3677;SDS011;1855;50.934;6.958;2022-08-19T13:23:45;6.97;;;6.15;;
3677;SDS011;1855;50.934;6.958;2022-08-19T13:26:13;6.10;;;5.60;;
3677;SDS011;1855;50.934;6.958;2022-08-19T13:28:40;6.20;;;5.70;;
3677;SDS011;1855;50.934;6.958;2022-08-19T13:31:27;6.88;;;6.30;;
3677;SDS011;1855;50.934;6.958;2022-08-19T13:34:13;6.57;;;5.97;;
3677;SDS011;1855;50.934;6.958;2022-08-19T13:36:41;7.22;;;6.68;;
3677;SDS011;1855;50.934;6.958;2022-08-19T13:39:07;6.38;;;5.78;;
3677;SDS011;1855;50.934;6.958;2022-08-19T13:41:34;7.15;;;6.57;;
3677;SDS011;1855;50.934;6.958;2022-08-19T13:44:02;6.00;;;5.50;;
3677;SDS011;1855;50.934;6.958;2022-08-19T13:46:30;5.53;;;5.13;;
3677;SDS011;1855;50.934;6.958;2022-08-19T13:48:57;5.50;;;5.10;;
3677;SDS011;1855;50.934;6.958;2022-08-19T13:51:24;5.82;;;5.43;;
3677;SDS011;1855;50.934;6.958;2022-08-19T13:53:51;5.73;;;5.23;;
3677;SDS011;1855;50.934;6.958;2022-08-19T13:56:18;5.38;;;4.97;;
3677;SDS011;1855;50.934;6.958;2022-08-19T13:58:45;6.77;;;6.17;;
3677;SDS011;1855;50.934;6.958;2022-08-19T14:01:12;5.72;;;5.32;;
3677;SDS011;1855;50.934;6.958;2022-08-19T14:03:47;6.10;;;5.60;;
3677;SDS011;1855;50.934;6.958;2022-08-19T14:06:14;5.70;;;5.20;;
3677;SDS011;1855;50.934;6.958;2022-08-19T14:08:42;5.55;;;5.05;;
3677;SDS011;1855;50.934;6.958;2022-08-19T14:11:09;5.93;;;5.43;;
3677;SDS011;1855;50.934;6.958;2022-08-19T14:13:37;5.32;;;4.82;;
3677;SDS011;1855;50.934;6.958;2022-08-19T14:16:06;5.00;;;4.50;;
3677;SDS011;1855;50.934;6.958;2022-08-19T14:18:34;4.78;;;4.38;;
3677;SDS011;1855;50.934;6.958;2022-08-19T14:21:03;6.10;;;5.70;;
3677;SDS011;1855;50.934;6.958;2022-08-19T14:23:30;6.13;;;5.63;;
3677;SDS011;1855;50.934;6.958;2022-08-19T14:26:04;6.32;;;5.82;;
3677;SDS011;1855;50.934;6.958;2022-08-19T14:28:32;5.40;;;5.00;;
3677;SDS011;1855;50.934;6.958;2022-08-19T14:30:59;5.53;;;5.13;;
3677;SDS011;1855;50.934;6.958;2022-08-19T14:33:26;5.32;;;4.82;;
3677;SDS011;1855;50.934;6.958;2022-08-19T14:35:52;5.50;;;5.10;;
3677;SDS011;1855;50.934;6.958;2022-08-19T14:38:21;5.60;;;5.10;;
3677;SDS011;1855;50.934;6.958;2022-08-19T14:40:47;4.88;;;4.57;;
3677;SDS011;1855;50.934;6.958;2022-08-19T14:43:16;5.47;;;4.97;;
3677;SDS011;1855;50.934;6.958;2022-08-19T14:45:44;5.30;;;4.90;;
3677;SDS011;1855;50.934;6.958;2022-08-19T14:48:11;5.20;;;4.70;;
3677;SDS011;1855;50.934;6.958;2022-08-19T14:50:38;6.35;;;5.10;;
3677;SDS011;1855;50.934;6.958;2022-08-19T14:53:05;5.00;;;4.60;;
3677;SDS011;1855;50.934;6.958;2022-08-19T14:55:35;4.60;;;4.20;;
3677;SDS011;1855;50.934;6.958;2022-08-19T14:58:02;4.45;;;4.07;;
3677;SDS011;1855;50.934;6.958;2022-08-19T15:00:28;4.50;;;4.10;;
3677;SDS011;1855;50.934;6.958;2022-08-19T15:02:55;5.00;;;4.07;;
3677;SDS011;1855;50.934;6.958;2022-08-19T15:05:22;5.38;;;4.32;;
3677;SDS011;1855;50.934;6.958;2022-08-19T15:07:49;4.45;;;3.40;;
3677;SDS011;1855;50.934;6.958;2022-08-19T15:10:16;4.25;;;3.60;;
3677;SDS011;1855;50.934;6.958;2022-08-19T15:12:44;3.70;;;3.50;;
3677;SDS011;1855;50.934;6.958;2022-08-19T15:15:13;3.97;;;3.58;;
3677;SDS011;1855;50.934;6.958;2022-08-19T15:17:42;4.00;;;3.60;;
3677;SDS011;1855;50.934;6.958;2022-08-19T15:20:10;3.90;;;3.30;;
3677;SDS011;1855;50.934;6.958;2022-08-19T15:22:38;3.58;;;3.28;;
3677;SDS011;1855;50.934;6.958;2022-08-19T15:25:07;3.65;;;3.35;;
3677;SDS011;1855;50.934;6.958;2022-08-19T15:27:35;3.88;;;3.45;;
3677;SDS011;1855;50.934;6.958;2022-08-19T15:30:05;3.60;;;3.30;;
3677;SDS011;1855;50.934;6.958;2022-08-19T15:32:33;4.40;;;3.70;;
3677;SDS011;1855;50.934;6.958;2022-08-19T15:35:00;3.60;;;3.30;;
3677;SDS011;1855;50.934;6.958;2022-08-19T15:37:28;4.60;;;3.28;;
3677;SDS011;1855;50.934;6.958;2022-08-19T15:39:55;3.70;;;3.20;;
3677;SDS011;1855;50.934;6.958;2022-08-19T15:42:22;3.00;;;2.70;;
3677;SDS011;1855;50.934;6.958;2022-08-19T15:44:51;4.18;;;2.70;;
3677;SDS011;1855;50.934;6.958;2022-08-19T15:47:19;3.38;;;2.55;;
3677;SDS011;1855;50.934;6.958;2022-08-19T15:49:46;3.03;;;2.50;;
3677;SDS011;1855;50.934;6.958;2022-08-19T15:52:12;2.80;;;2.60;;
3677;SDS011;1855;50.934;6.958;2022-08-19T15:54:39;3.67;;;3.00;;
3677;SDS011;1855;50.934;6.958;2022-08-19T15:57:06;3.10;;;2.80;;
3677;SDS011;1855;50.934;6.958;2022-08-19T15:59:50;3.20;;;2.90;;
3677;SDS011;1855;50.934;6.958;2022-08-19T16:02:36;3.58;;;3.15;;
3677;SDS011;1855;50.934;6.958;2022-08-19T16:05:22;2.90;;;2.70;;
3677;SDS011;1855;50.934;6.958;2022-08-19T16:08:08;4.00;;;3.20;;
3677;SDS011;1855;50.934;6.958;2022-08-19T16:10:36;3.55;;;3.00;;
3677;SDS011;1855;50.934;6.958;2022-08-19T16:13:04;3.20;;;2.90;;
3677;SDS011;1855;50.934;6.958;2022-08-19T16:15:31;4.60;;;3.60;;
3677;SDS011;1855;50.934;6.958;2022-08-19T16:18:00;3.13;;;2.80;;
3677;SDS011;1855;50.934;6.958;2022-08-19T16:20:28;3.55;;;2.80;;
3677;SDS011;1855;50.934;6.958;2022-08-19T16:22:55;3.00;;;2.80;;
3677;SDS011;1855;50.934;6.958;2022-08-19T16:25:22;3.40;;;3.10;;
3677;SDS011;1855;50.934;6.958;2022-08-19T16:27:51;3.63;;;3.30;;
3677;SDS011;1855;50.934;6.958;2022-08-19T16:30:18;4.82;;;3.28;;
3677;SDS011;1855;50.934;6.958;2022-08-19T16:32:45;4.18;;;3.05;;
3677;SDS011;1855;50.934;6.958;2022-08-19T16:35:13;5.67;;;3.27;;
3677;SDS011;1855;50.934;6.958;2022-08-19T16:37:40;3.67;;;2.70;;
3677;SDS011;1855;50.934;6.958;2022-08-19T16:40:07;3.30;;;3.03;;
3677;SDS011;1855;50.934;6.958;2022-08-19T16:42:35;3.78;;;2.45;;
3677;SDS011;1855;50.934;6.958;2022-08-19T16:45:02;3.50;;;2.40;;
3677;SDS011;1855;50.934;6.958;2022-08-19T16:47:32;3.00;;;2.58;;
3677;SDS011;1855;50.934;6.958;2022-08-19T16:50:00;3.50;;;2.50;;
3677;SDS011;1855;50.934;6.958;2022-08-19T16:52:28;3.10;;;2.42;;
3677;SDS011;1855;50.934;6.958;2022-08-19T16:54:55;2.40;;;2.17;;
3677;SDS011;1855;50.934;6.958;2022-08-19T16:57:22;2.80;;;2.60;;
3677;SDS011;1855;50.934;6.958;2022-08-19T16:59:49;3.00;;;2.30;;
3677;SDS011;1855;50.934;6.958;2022-08-19T17:02:17;2.20;;;2.00;;
3677;SDS011;1855;50.934;6.958;2022-08-19T17:04:45;2.78;;;2.10;;
3677;SDS011;1855;50.934;6.958;2022-08-19T17:07:13;3.70;;;1.80;;
3677;SDS011;1855;50.934;6.958;2022-08-19T17:09:42;3.08;;;2.20;;
3677;SDS011;1855;50.934;6.958;2022-08-19T17:12:08;3.30;;;2.08;;
3677;SDS011;1855;50.934;6.958;2022-08-19T17:14:36;2.53;;;2.10;;
3677;SDS011;1855;50.934;6.958;2022-08-19T17:17:03;2.33;;;2.10;;
3677;SDS011;1855;50.934;6.958;2022-08-19T17:19:30;4.50;;;2.37;;
3677;SDS011;1855;50.934;6.958;2022-08-19T17:21:57;4.10;;;2.78;;
3677;SDS011;1855;50.934;6.958;2022-08-19T17:24:24;2.60;;;2.20;;
3677;SDS011;1855;50.934;6.958;2022-08-19T17:26:52;3.40;;;2.28;;
3677;SDS011;1855;50.934;6.958;2022-08-19T17:29:19;3.80;;;2.28;;
3677;SDS011;1855;50.934;6.958;2022-08-19T17:31:46;3.47;;;2.53;;
3677;SDS011;1855;50.934;6.958;2022-08-19T17:34:13;2.77;;;2.20;;
3677;SDS011;1855;50.934;6.958;2022-08-19T17:36:41;3.60;;;2.30;;
3677;SDS011;1855;50.934;6.958;2022-08-19T17:39:08;2.92;;;2.40;;
3677;SDS011;1855;50.934;6.958;2022-08-19T17:41:35;2.63;;;2.42;;
3677;SDS011;1855;50.934;6.958;2022-08-19T17:44:03;3.72;;;2.53;;
3677;SDS011;1855;50.934;6.958;2022-08-19T17:46:31;2.53;;;2.33;;
3677;SDS011;1855;50.934;6.958;2022-08-19T17:48:58;3.30;;;2.60;;
3677;SDS011;1855;50.934;6.958;2022-08-19T17:51:36;3.47;;;2.90;;
3677;SDS011;1855;50.934;6.958;2022-08-19T17:54:06;3.43;;;3.10;;
3677;SDS011;1855;50.934;6.958;2022-08-19T17:56:34;3.30;;;3.00;;
3677;SDS011;1855;50.934;6.958;2022-08-19T17:59:03;5.00;;;3.10;;
3677;SDS011;1855;50.934;6.958;2022-08-19T18:01:31;3.50;;;3.10;;
3677;SDS011;1855;50.934;6.958;2022-08-19T18:03:58;3.50;;;3.20;;
3677;SDS011;1855;50.934;6.958;2022-08-19T18:06:25;3.20;;;2.90;;
3677;SDS011;1855;50.934;6.958;2022-08-19T18:08:52;3.40;;;2.80;;
3677;SDS011;1855;50.934;6.958;2022-08-19T18:11:19;3.63;;;3.30;;
3677;SDS011;1855;50.934;6.958;2022-08-19T18:13:46;4.63;;;3.10;;
3677;SDS011;1855;50.934;6.958;2022-08-19T18:16:15;3.90;;;3.13;;
3677;SDS011;1855;50.934;6.958;2022-08-19T18:18:44;3.63;;;2.80;;
3677;SDS011;1855;50.934;6.958;2022-08-19T18:21:11;3.10;;;2.80;;
3677;SDS011;1855;50.934;6.958;2022-08-19T18:23:39;3.03;;;2.72;;
3677;SDS011;1855;50.934;6.958;2022-08-19T18:26:06;3.83;;;3.08;;
3677;SDS011;1855;50.934;6.958;2022-08-19T18:28:33;3.20;;;2.90;;
3677;SDS011;1855;50.934;6.958;2022-08-19T18:31:03;4.60;;;3.20;;
3677;SDS011;1855;50.934;6.958;2022-08-19T18:33:32;4.00;;;2.90;;
3677;SDS011;1855;50.934;6.958;2022-08-19T18:35:59;4.20;;;3.20;;
3677;SDS011;1855;50.934;6.958;2022-08-19T18:38:27;3.53;;;3.00;;
3677;SDS011;1855;50.934;6.958;2022-08-19T18:41:12;3.33;;;3.13;;
3677;SDS011;1855;50.934;6.958;2022-08-19T18:43:56;4.15;;;3.55;;
3677;SDS011;1855;50.934;6.958;2022-08-19T18:46:41;3.60;;;3.20;;
3677;SDS011;1855;50.934;6.958;2022-08-19T18:49:28;4.05;;;3.67;;
3677;SDS011;1855;50.934;6.958;2022-08-19T18:51:56;3.75;;;3.40;;
3677;SDS011;1855;50.934;6.958;2022-08-19T18:54:23;4.07;;;3.20;;
3677;SDS011;1855;50.934;6.958;2022-08-19T18:56:51;3.50;;;3.20;;
3677;SDS011;1855;50.934;6.958;2022-08-19T18:59:19;4.00;;;3.70;;
3677;SDS011;1855;50.934;6.958;2022-08-19T19:01:47;5.63;;;3.90;;
3677;SDS011;1855;50.934;6.958;2022-08-19T19:04:16;5.28;;;3.40;;
3677;SDS011;1855;50.934;6.958;2022-08-19T19:06:47;4.00;;;3.30;;
3677;SDS011;1855;50.934;6.958;2022-08-19T19:09:16;4.70;;;3.13;;
3677;SDS011;1855;50.934;6.958;2022-08-19T19:11:45;3.67;;;3.10;;
3677;SDS011;1855;50.934;6.958;2022-08-19T19:14:15;3.10;;;2.90;;
3677;SDS011;1855;50.934;6.958;2022-08-19T19:16:44;3.70;;;3.10;;
3677;SDS011;1855;50.934;6.958;2022-08-19T19:19:11;3.83;;;3.53;;
3677;SDS011;1855;50.934;6.958;2022-08-19T19:21:39;3.67;;;3.00;;
3677;SDS011;1855;50.934;6.958;2022-08-19T19:24:13;3.72;;;3.42;;
3677;SDS011;1855;50.934;6.958;2022-08-19T19:26:41;4.53;;;2.80;;
3677;SDS011;1855;50.934;6.958;2022-08-19T19:29:10;3.63;;;3.33;;
3677;SDS011;1855;50.934;6.958;2022-08-19T19:31:37;2.70;;;2.40;;
3677;SDS011;1855;50.934;6.958;2022-08-19T19:34:05;3.05;;;2.70;;
3677;SDS011;1855;50.934;6.958;2022-08-19T19:36:32;2.40;;;2.20;;
3677;SDS011;1855;50.934;6.958;2022-08-19T19:38:58;2.03;;;1.83;;
3677;SDS011;1855;50.934;6.958;2022-08-19T19:41:27;2.00;;;1.80;;
3677;SDS011;1855;50.934;6.958;2022-08-19T19:43:57;1.83;;;1.73;;
3677;SDS011;1855;50.934;6.958;2022-08-19T19:46:25;2.20;;;1.90;;
3677;SDS011;1855;50.934;6.958;2022-08-19T19:48:52;2.90;;;2.00;;
3677;SDS011;1855;50.934;6.958;2022-08-19T19:51:20;2.80;;;2.60;;
3677;SDS011;1855;50.934;6.958;2022-08-19T19:53:48;2.88;;;2.60;;
3677;SDS011;1855;50.934;6.958;2022-08-19T19:56:15;2.65;;;2.35;;
3677;SDS011;1855;50.934;6.958;2022-08-19T19:58:43;2.50;;;2.30;;
3677;SDS011;1855;50.934;6.958;2022-08-19T20:01:11;3.15;;;2.63;;
3677;SDS011;1855;50.934;6.958;2022-08-19T20:03:38;2.40;;;2.20;;
3677;SDS011;1855;50.934;6.958;2022-08-19T20:06:05;2.60;;;2.40;;
3677;SDS011;1855;50.934;6.958;2022-08-19T20:08:33;2.80;;;2.50;;
3677;SDS011;1855;50.934;6.958;2022-08-19T20:11:25;2.80;;;2.50;;
3677;SDS011;1855;50.934;6.958;2022-08-19T20:13:58;3.05;;;2.75;;
3677;SDS011;1855;50.934;6.958;2022-08-19T20:16:27;3.55;;;3.00;;
3677;SDS011;1855;50.934;6.958;2022-08-19T20:18:55;2.95;;;2.72;;
3677;SDS011;1855;50.934;6.958;2022-08-19T20:21:23;4.07;;;3.60;;
3677;SDS011;1855;50.934;6.958;2022-08-19T20:23:52;2.92;;;2.63;;
3677;SDS011;1855;50.934;6.958;2022-08-19T20:26:20;4.35;;;2.65;;
3677;SDS011;1855;50.934;6.958;2022-08-19T20:28:47;3.00;;;2.70;;
3677;SDS011;1855;50.934;6.958;2022-08-19T20:31:16;2.75;;;2.55;;
3677;SDS011;1855;50.934;6.958;2022-08-19T20:33:44;2.72;;;2.53;;
3677;SDS011;1855;50.934;6.958;2022-08-19T20:36:11;2.30;;;2.10;;
3677;SDS011;1855;50.934;6.958;2022-08-19T20:38:37;2.95;;;2.22;;
3677;SDS011;1855;50.934;6.958;2022-08-19T20:41:04;2.70;;;2.50;;
3677;SDS011;1855;50.934;6.958;2022-08-19T20:43:32;3.58;;;2.92;;
3677;SDS011;1855;50.934;6.958;2022-08-19T20:45:59;2.78;;;2.58;;
3677;SDS011;1855;50.934;6.958;2022-08-19T20:48:28;3.17;;;2.88;;
3677;SDS011;1855;50.934;6.958;2022-08-19T20:50:55;3.00;;;2.80;;
3677;SDS011;1855;50.934;6.958;2022-08-19T20:53:23;2.70;;;2.50;;
3677;SDS011;1855;50.934;6.958;2022-08-19T20:55:51;3.00;;;2.70;;
3677;SDS011;1855;50.934;6.958;2022-08-19T20:58:19;2.80;;;2.60;;
3677;SDS011;1855;50.934;6.958;2022-08-19T21:00:49;2.90;;;2.70;;
3677;SDS011;1855;50.934;6.958;2022-08-19T21:03:17;2.75;;;2.40;;
3677;SDS011;1855;50.934;6.958;2022-08-19T21:05:47;2.95;;;2.40;;
3677;SDS011;1855;50.934;6.958;2022-08-19T21:08:14;3.43;;;2.50;;
3677;SDS011;1855;50.934;6.958;2022-08-19T21:10:42;3.40;;;2.33;;
3677;SDS011;1855;50.934;6.958;2022-08-19T21:13:09;2.60;;;2.40;;
3677;SDS011;1855;50.934;6.958;2022-08-19T21:15:36;2.38;;;2.17;;
3677;SDS011;1855;50.934;6.958;2022-08-19T21:18:07;3.63;;;2.60;;
3677;SDS011;1855;50.934;6.958;2022-08-19T21:20:35;4.03;;;2.50;;
3677;SDS011;1855;50.934;6.958;2022-08-19T21:23:04;2.70;;;2.50;;
3677;SDS011;1855;50.934;6.958;2022-08-19T21:25:31;2.78;;;2.50;;
3677;SDS011;1855;50.934;6.958;2022-08-19T21:27:58;2.63;;;2.42;;
3677;SDS011;1855;50.934;6.958;2022-08-19T21:30:25;2.65;;;2.45;;
3677;SDS011;1855;50.934;6.958;2022-08-19T21:32:52;4.65;;;2.40;;
3677;SDS011;1855;50.934;6.958;2022-08-19T21:35:19;3.35;;;2.25;;
3677;SDS011;1855;50.934;6.958;2022-08-19T21:37:47;3.05;;;2.50;;
3677;SDS011;1855;50.934;6.958;2022-08-19T21:40:15;3.08;;;2.30;;
3677;SDS011;1855;50.934;6.958;2022-08-19T21:42:44;2.70;;;2.50;;
3677;SDS011;1855;50.934;6.958;2022-08-19T21:45:11;2.67;;;2.47;;
3677;SDS011;1855;50.934;6.958;2022-08-19T21:47:39;2.70;;;2.50;;
3677;SDS011;1855;50.934;6.958;2022-08-19T21:50:06;2.80;;;2.60;;
3677;SDS011;1855;50.934;6.958;2022-08-19T21:52:35;3.50;;;2.50;;
3677;SDS011;1855;50.934;6.958;2022-08-19T21:55:02;3.38;;;2.60;;
3677;SDS011;1855;50.934;6.958;2022-08-19T21:57:31;2.83;;;2.50;;
3677;SDS011;1855;50.934;6.958;2022-08-19T21:59:58;3.45;;;2.65;;
3677;SDS011;1855;50.934;6.958;2022-08-19T22:02:25;2.40;;;2.20;;
3677;SDS011;1855;50.934;6.958;2022-08-19T22:04:53;3.80;;;2.60;;
3677;SDS011;1855;50.934;6.958;2022-08-19T22:07:20;3.28;;;2.78;;
3677;SDS011;1855;50.934;6.958;2022-08-19T22:09:48;3.72;;;2.85;;
3677;SDS011;1855;50.934;6.958;2022-08-19T22:12:19;3.40;;;2.60;;
3677;SDS011;1855;50.934;6.958;2022-08-19T22:14:50;3.05;;;2.75;;
3677;SDS011;1855;50.934;6.958;2022-08-19T22:17:18;3.13;;;2.60;;
3677;SDS011;1855;50.934;6.958;2022-08-19T22:19:46;3.05;;;2.85;;
3677;SDS011;1855;50.934;6.958;2022-08-19T22:22:18;3.30;;;3.00;;
3677;SDS011;1855;50.934;6.958;2022-08-19T22:24:46;3.10;;;2.78;;
3677;SDS011;1855;50.934;6.958;2022-08-19T22:27:13;3.40;;;2.50;;
3677;SDS011;1855;50.934;6.958;2022-08-19T22:29:39;3.30;;;3.00;;
3677;SDS011;1855;50.934;6.958;2022-08-19T22:32:08;3.40;;;3.10;;
3677;SDS011;1855;50.934;6.958;2022-08-19T22:34:35;3.50;;;3.20;;
3677;SDS011;1855;50.934;6.958;2022-08-19T22:37:02;3.28;;;2.97;;
3677;SDS011;1855;50.934;6.958;2022-08-19T22:39:30;2.93;;;2.73;;
3677;SDS011;1855;50.934;6.958;2022-08-19T22:41:57;3.30;;;3.10;;
3677;SDS011;1855;50.934;6.958;2022-08-19T22:44:24;3.30;;;2.90;;
3677;SDS011;1855;50.934;6.958;2022-08-19T22:46:51;3.15;;;2.85;;
3677;SDS011;1855;50.934;6.958;2022-08-19T22:49:20;3.90;;;3.40;;
3677;SDS011;1855;50.934;6.958;2022-08-19T22:51:47;3.70;;;3.40;;
3677;SDS011;1855;50.934;6.958;2022-08-19T22:54:31;4.85;;;3.50;;
3677;SDS011;1855;50.934;6.958;2022-08-19T22:56:57;3.70;;;3.40;;
3677;SDS011;1855;50.934;6.958;2022-08-19T22:59:24;4.43;;;3.40;;
3677;SDS011;1855;50.934;6.958;2022-08-19T23:01:51;3.83;;;3.40;;
3677;SDS011;1855;50.934;6.958;2022-08-19T23:04:20;4.63;;;3.50;;
3677;SDS011;1855;50.934;6.958;2022-08-19T23:06:47;4.82;;;4.18;;
3677;SDS011;1855;50.934;6.958;2022-08-19T23:09:16;4.07;;;3.67;;
3677;SDS011;1855;50.934;6.958;2022-08-19T23:11:44;3.70;;;3.30;;
3677;SDS011;1855;50.934;6.958;2022-08-19T23:14:12;3.90;;;3.60;;
3677;SDS011;1855;50.934;6.958;2022-08-19T23:16:39;4.20;;;3.80;;
3677;SDS011;1855;50.934;6.958;2022-08-19T23:19:07;3.97;;;3.57;;
3677;SDS011;1855;50.934;6.958;2022-08-19T23:21:35;3.77;;;3.47;;
3677;SDS011;1855;50.934;6.958;2022-08-19T23:24:03;4.32;;;3.80;;
3677;SDS011;1855;50.934;6.958;2022-08-19T23:26:30;4.30;;;3.75;;
3677;SDS011;1855;50.934;6.958;2022-08-19T23:28:57;4.10;;;3.80;;
3677;SDS011;1855;50.934;6.958;2022-08-19T23:31:41;3.80;;;3.50;;
3677;SDS011;1855;50.934;6.958;2022-08-19T23:34:08;4.60;;;4.30;;
3677;SDS011;1855;50.934;6.958;2022-08-19T23:36:36;4.10;;;3.70;;
3677;SDS011;1855;50.934;6.958;2022-08-19T23:39:03;4.43;;;4.05;;
3677;SDS011;1855;50.934;6.958;2022-08-19T23:41:30;4.50;;;4.20;;
3677;SDS011;1855;50.934;6.958;2022-08-19T23:43:57;4.10;;;3.80;;
3677;SDS011;1855;50.934;6.958;2022-08-19T23:46:24;4.73;;;4.33;;
3677;SDS011;1855;50.934;6.958;2022-08-19T23:48:51;4.60;;;4.20;;
3677;SDS011;1855;50.934;6.958;2022-08-19T23:51:18;5.40;;;4.37;;
3677;SDS011;1855;50.934;6.958;2022-08-19T23:53:46;4.80;;;4.00;;
3677;SDS011;1855;50.934;6.958;2022-08-19T23:56:13;4.60;;;4.20;;
3677;SDS011;1855;50.934;6.958;2022-08-19T23:58:40;4.30;;;3.90;;
